Time;durP1;ratioP1;P1;durP2;ratioP2;P2;SDS_P1;SDS_P2;PMS_P1;PMS_P2;Temp;Humidity;BMP_temperature;BMP_pressure;BME280_temperature;BME280_humidity;BME280_pressure;Samples;Min_cycle;Max_cycle;Signal;HPM_P1;HPM_P2
2023/10/07 00:04:14;;;;;;;15.48;6.45;;;;;;;10.25;69.59;98614.78;10405621;28;20060;-50
2023/10/07 00:09:15;;;;;;;11.32;6.18;;;;;;;10.28;69.13;98612.22;10445972;28;20141;-51
2023/10/07 00:14:15;;;;;;;14.05;7.53;;;;;;;10.19;69.00;98613.84;10446315;28;20446;-50
2023/10/07 00:19:14;;;;;;;11.30;5.30;;;;;;;9.87;69.91;98582.25;10446481;28;20483;-50
2023/10/07 00:24:16;;;;;;;13.10;6.18;;;;;;;9.81;70.10;98552.78;10456318;28;20060;-51
2023/10/07 00:29:16;;;;;;;13.90;6.82;;;;;;;10.10;69.36;98603.34;10457483;28;20063;-49
2023/10/07 00:34:16;;;;;;;13.15;5.55;;;;;;;10.09;69.70;98596.41;10455884;28;20510;-51
2023/10/07 00:39:21;;;;;;;11.82;5.85;;;;;;;10.02;69.94;98599.75;10457543;28;20485;-49
2023/10/07 00:49:22;;;;;;;14.45;7.10;;;;;;;9.96;69.64;98585.00;10415225;28;20067;-48
2023/10/07 00:54:44;;;;;;;11.50;5.93;;;;;;;9.71;70.31;98534.50;10413180;28;20074;-48
2023/10/07 00:59:50;;;;;;;11.07;6.00;;;;;;;9.86;70.87;98579.63;10455135;28;20066;-48
2023/10/07 01:04:49;;;;;;;11.55;6.03;;;;;;;9.70;71.59;98569.06;10456309;28;20499;-49
2023/10/07 01:09:59;;;;;;;12.15;5.70;;;;;;;9.71;72.01;98577.69;10456126;28;20047;-51
2023/10/07 01:14:58;;;;;;;12.57;6.70;;;;;;;9.67;72.02;98576.75;10455930;28;20075;-49
2023/10/07 01:19:57;;;;;;;11.52;5.93;;;;;;;9.62;71.62;98580.13;10454356;28;20048;-49
2023/10/07 01:24:56;;;;;;;12.35;6.88;;;;;;;9.61;71.64;98581.84;10453166;28;20056;-48
2023/10/07 01:30:07;;;;;;;12.82;7.22;;;;;;;8.87;71.80;98453.69;10407981;28;20072;-50
2023/10/07 01:35:11;;;;;;;15.63;6.47;;;;;;;9.53;71.73;98573.94;10451496;28;20063;-50
2023/10/07 01:40:16;;;;;;;11.55;6.43;;;;;;;9.38;71.68;98552.13;10451626;28;20505;-51
2023/10/07 01:45:21;;;;;;;11.98;6.85;;;;;;;9.44;72.35;98563.47;10439244;28;20067;-49
2023/10/07 01:50:19;;;;;;;14.13;6.85;;;;;;;9.24;71.81;98528.53;10451181;28;20067;-48
2023/10/07 01:55:19;;;;;;;11.63;6.65;;;;;;;9.30;72.35;98558.03;10407529;28;20119;-50
2023/10/07 02:05:56;;;;;;;14.98;7.45;;;;;;;8.86;73.65;98547.72;10442876;28;20580;-48
2023/10/07 02:11:06;;;;;;;13.90;7.45;;;;;;;8.69;73.75;98549.13;10449395;28;20490;-49
2023/10/07 02:16:06;;;;;;;15.65;9.05;;;;;;;8.52;73.74;98516.03;10449446;28;20083;-50
2023/10/07 02:21:07;;;;;;;15.73;9.65;;;;;;;8.51;74.62;98532.41;10449997;28;20853;-48
2023/10/07 02:26:19;;;;;;;14.85;8.80;;;;;;;8.49;74.72;98540.97;10448948;28;20139;-48
2023/10/07 02:31:24;;;;;;;14.30;8.80;;;;;;;8.49;74.63;98538.38;10407737;28;20064;-50
2023/10/07 02:36:31;;;;;;;12.88;8.82;;;;;;;8.45;74.64;98529.69;10448188;28;20074;-50
2023/10/07 02:41:32;;;;;;;15.50;9.35;;;;;;;8.36;74.63;98510.53;10449771;28;20068;-50
2023/10/07 02:46:34;;;;;;;15.95;9.63;;;;;;;8.47;74.80;98535.75;10424329;28;20475;-48
2023/10/07 02:51:34;;;;;;;13.45;8.68;;;;;;;8.51;75.72;98532.41;10446594;28;20078;-48
2023/10/07 02:56:44;;;;;;;18.17;9.35;;;;;;;8.40;76.43;98531.31;10448909;28;20062;-48
2023/10/07 03:01:58;;;;;;;;;;;;;;;8.44;76.33;98533.13;10449071;28;20068;-48
2023/10/07 03:06:58;;;;;;;15.57;7.75;;;;;;;8.21;76.09;98526.63;10448176;28;19978;-47
2023/10/07 03:12:02;;;;;;;11.32;7.35;;;;;;;7.90;75.81;98465.63;10447653;28;20507;-50
2023/10/07 03:17:05;;;;;;;13.93;7.38;;;;;;;8.00;75.92;98494.28;10447515;28;20051;-48
2023/10/07 03:22:09;;;;;;;18.25;9.13;;;;;;;8.17;75.90;98529.97;10448770;28;20111;-47
2023/10/07 03:27:11;;;;;;;15.43;8.55;;;;;;;7.89;75.53;98490.59;10451638;28;20478;-47
2023/10/07 03:32:12;;;;;;;15.25;8.35;;;;;;;7.86;76.96;98542.22;10450478;28;20087;-50
2023/10/07 03:42:14;;;;;;;12.18;7.60;;;;;;;7.66;77.34;98540.09;10410446;28;20067;-50
2023/10/07 03:47:15;;;;;;;12.88;7.75;;;;;;;7.74;76.62;98531.63;10437655;28;20056;-49
2023/10/07 03:52:14;;;;;;;14.30;8.27;;;;;;;7.60;77.40;98514.09;10449989;28;20062;-50
2023/10/07 03:57:15;;;;;;;14.88;8.13;;;;;;;7.74;77.21;98529.03;10457261;28;20463;-48
2023/10/07 04:02:34;;;;;;;15.82;8.82;;;;;;;7.68;77.44;98526.31;10457880;28;20059;-49
2023/10/07 04:07:33;;;;;;;18.58;9.75;;;;;;;7.74;77.86;98516.13;10459585;28;20451;-48
2023/10/07 04:12:32;;;;;;;15.27;9.82;;;;;;;7.74;77.91;98510.97;10457945;28;20434;-49
2023/10/07 04:17:31;;;;;;;20.58;10.70;;;;;;;7.76;77.59;98510.16;10458234;28;20030;-48
2023/10/07 04:22:30;;;;;;;19.02;12.13;;;;;;;7.78;77.42;98518.81;10415127;28;20067;-48
2023/10/07 04:27:29;;;;;;;18.40;12.10;;;;;;;7.75;77.64;98516.13;10412279;28;20075;-48
2023/10/07 04:32:28;;;;;;;24.20;12.45;;;;;;;7.75;77.88;98517.84;10412927;28;20079;-50
2023/10/07 04:37:47;;;;;;;22.92;12.07;;;;;;;7.76;78.44;98522.22;10412154;28;20112;-47
2023/10/07 04:43:25;;;;;;;19.30;12.65;;;;;;;7.74;77.94;98526.47;10412024;28;20067;-47
2023/10/07 04:53:25;;;;;;;22.27;12.25;;;;;;;7.87;78.00;98513.84;10451881;28;20115;-49
2023/10/07 04:58:24;;;;;;;22.73;12.75;;;;;;;7.91;77.55;98526.84;10451695;28;20206;-47
2023/10/07 05:03:26;;;;;;;;;;;;;;;8.00;77.49;98525.31;10409498;28;20123;-50
2023/10/07 05:08:27;;;;;;;20.83;14.90;;;;;;;8.07;77.53;98532.34;10409015;28;19967;-50
2023/10/07 05:13:26;;;;;;;24.27;12.07;;;;;;;8.19;77.76;98534.34;10410303;28;20562;-50
2023/10/07 05:18:25;;;;;;;31.60;13.13;;;;;;;8.16;77.84;98536.88;10451595;28;20020;-47
2023/10/07 05:23:25;;;;;;;29.38;11.75;;;;;;;8.18;77.17;98534.31;10450720;28;20065;-49
2023/10/07 05:28:27;;;;;;;23.55;14.60;;;;;;;8.12;77.33;98534.19;10451159;28;20531;-50
2023/10/07 05:33:28;;;;;;;19.58;12.25;;;;;;;8.28;77.26;98544.00;10451459;28;20071;-48
2023/10/07 05:38:27;;;;;;;24.60;14.45;;;;;;;8.42;76.97;98524.47;10451407;28;20048;-50
2023/10/07 05:43:28;;;;;;;36.33;19.15;;;;;;;8.66;76.48;98539.56;10451702;28;20112;-47
2023/10/07 05:48:27;;;;;;;50.53;26.27;;;;;;;8.93;76.50;98544.41;10410321;28;20070;-49
2023/10/07 05:53:26;;;;;;;32.03;15.95;;;;;;;9.10;75.51;98541.25;10408892;28;20059;-51
2023/10/07 05:58:27;;;;;;;23.67;14.63;;;;;;;9.38;74.38;98544.34;10449397;28;20158;-49
2023/10/07 06:03:28;;;;;;;28.65;14.10;;;;;;;9.46;74.03;98534.97;10450191;28;20059;-49
2023/10/07 06:08:28;;;;;;;34.83;16.77;;;;;;;9.52;72.71;98496.22;10448673;28;20129;-46
2023/10/07 06:13:28;;;;;;;36.83;17.27;;;;;;;9.84;72.68;98537.25;10448086;28;20128;-48
2023/10/07 06:18:27;;;;;;;21.05;13.10;;;;;;;9.81;74.37;98545.88;10449515;28;20055;-50
2023/10/07 06:23:28;;;;;;;19.20;11.45;;;;;;;9.86;75.57;98551.13;10450058;28;20114;-50
2023/10/07 06:33:26;;;;;;;16.73;11.75;;;;;;;10.19;74.86;98551.59;10449489;28;20044;-52
2023/10/07 06:38:26;;;;;;;20.38;11.73;;;;;;;10.37;74.22;98555.28;10448944;28;20091;-47
2023/10/07 06:43:25;;;;;;;20.17;12.98;;;;;;;10.54;73.86;98552.88;10407506;28;20067;-49
2023/10/07 06:48:27;;;;;;;16.73;10.85;;;;;;;10.72;74.03;98544.44;10446404;28;20059;-48
2023/10/07 06:53:26;;;;;;;18.00;10.50;;;;;;;10.94;73.38;98541.28;10451379;28;20078;-48
2023/10/07 06:58:25;;;;;;;17.92;11.50;;;;;;;11.12;72.87;98521.50;10449645;28;20105;-47
2023/10/07 07:03:25;;;;;;;18.75;9.82;;;;;;;11.37;71.81;98531.25;10451322;28;20103;-51
2023/10/07 07:08:24;;;;;;;17.15;9.48;;;;;;;11.69;70.34;98528.03;10451584;28;20111;-48
2023/10/07 07:13:27;;;;;;;11.65;7.50;;;;;;;11.99;69.41;98527.34;10450743;28;20024;-48
2023/10/07 07:18:26;;;;;;;14.50;9.10;;;;;;;12.17;67.75;98521.38;10449832;28;20062;-50
2023/10/07 07:23:31;;;;;;;13.68;9.20;;;;;;;12.29;67.16;98521.47;10449372;28;20761;-49
2023/10/07 07:28:31;;;;;;;15.30;8.25;;;;;;;12.63;67.18;98513.78;10405665;28;20131;-49
2023/10/07 07:33:34;;;;;;;19.13;8.63;;;;;;;12.81;65.92;98507.75;10408259;28;20083;-50
2023/10/07 07:38:43;;;;;;;16.60;8.07;;;;;;;13.04;64.53;98507.78;10431169;28;20055;-49
2023/10/07 07:43:43;;;;;;;12.88;7.72;;;;;;;13.34;63.47;98499.13;10447225;28;20051;-50
2023/10/07 07:48:43;;;;;;;13.07;7.22;;;;;;;13.62;62.78;98503.47;10405029;28;20123;-52
2023/10/07 07:53:42;;;;;;;11.02;6.47;;;;;;;13.76;61.83;98478.25;10405642;28;20062;-52
2023/10/07 07:58:47;;;;;;;12.98;7.30;;;;;;;14.18;61.21;98486.81;10405917;28;20272;-49
2023/10/07 08:03:47;;;;;;;11.57;6.60;;;;;;;14.59;61.00;98480.53;10446445;28;20063;-49
2023/10/07 08:08:47;;;;;;;11.30;6.63;;;;;;;15.01;59.62;98483.78;10447408;28;20063;-52
2023/10/07 08:13:46;;;;;;;12.57;6.20;;;;;;;15.08;57.76;98433.19;10440128;28;20074;-50
2023/10/07 08:18:53;;;;;;;10.30;6.28;;;;;;;15.59;56.80;98475.44;10446268;28;20059;-52
2023/10/07 08:23:52;;;;;;;13.85;6.93;;;;;;;15.83;56.19;98460.41;10448243;28;20130;-50
2023/10/07 08:39:08;;;;;;;13.80;8.48;;;;;;;16.84;52.61;98453.03;10449946;28;20063;-49
2023/10/07 08:44:15;;;;;;;13.15;8.10;;;;;;;17.26;52.46;98435.78;10451029;28;20157;-51
2023/10/07 08:49:17;;;;;;;13.70;8.57;;;;;;;17.31;51.50;98391.09;10414951;28;20067;-51
2023/10/07 08:54:25;;;;;;;11.65;7.03;;;;;;;17.71;50.09;98432.34;10415303;28;20068;-51
2023/10/07 08:59:30;;;;;;;14.32;7.10;;;;;;;18.00;49.33;98426.53;10415698;28;20531;-48
2023/10/07 09:04:33;;;;;;;14.27;6.25;;;;;;;18.46;48.21;98409.81;10455827;28;20463;-49
2023/10/07 09:09:55;;;;;;;12.93;6.35;;;;;;;18.75;47.43;98405.69;10455923;28;20483;-51
2023/10/07 09:14:55;;;;;;;11.85;6.50;;;;;;;19.00;45.90;98409.44;10455804;28;20071;-49
2023/10/07 09:19:58;;;;;;;13.43;6.47;;;;;;;19.21;45.29;98389.63;10414354;28;20063;-49
2023/10/07 09:35:35;;;;;;;10.35;4.95;;;;;;;20.18;41.45;98386.97;10451017;28;20067;-48
2023/10/07 09:45:59;;;;;;;10.15;4.88;;;;;;;20.59;40.52;98355.03;10420249;28;20111;-48
2023/10/07 09:50:58;;;;;;;8.20;3.92;;;;;;;20.75;39.13;98372.09;10451083;28;20034;-48
2023/10/07 09:56:20;;;;;;;11.50;5.28;;;;;;;21.01;38.44;98363.31;10449817;28;20064;-49
2023/10/07 10:01:38;;;;;;;9.52;4.20;;;;;;;21.36;37.61;98361.28;10409467;28;20115;-48
2023/10/07 10:07:05;;;;;;;7.32;4.60;;;;;;;21.57;37.39;98343.81;10449142;28;20170;-50
2023/10/07 10:12:23;;;;;;;8.68;4.10;;;;;;;21.86;36.53;98328.66;10408283;28;20059;-52
2023/10/07 10:17:39;;;;;;;9.70;4.38;;;;;;;22.06;36.55;98325.28;10408271;28;20052;-50
2023/10/07 10:22:52;;;;;;;16.42;4.88;;;;;;;22.26;35.93;98311.31;10449124;28;20058;-51
2023/10/07 10:28:01;;;;;;;7.10;3.60;;;;;;;22.47;35.11;98291.06;10448721;28;20107;-50
2023/10/07 10:33:08;;;;;;;9.50;4.15;;;;;;;22.48;33.78;98287.50;10449532;28;20078;-49
2023/10/07 10:38:09;;;;;;;6.53;4.38;;;;;;;22.52;33.58;98273.22;10446985;28;20125;-51
2023/10/07 10:43:08;;;;;;;6.93;3.65;;;;;;;22.72;33.57;98267.97;10449603;28;20058;-49
2023/10/07 10:48:08;;;;;;;8.75;5.43;;;;;;;22.84;33.11;98255.19;10411141;28;20047;-49
2023/10/07 10:53:07;;;;;;;10.93;3.97;;;;;;;22.83;32.98;98232.28;10448227;28;20423;-50
2023/10/07 10:58:19;;;;;;;13.10;4.32;;;;;;;23.14;32.82;98243.28;10448606;28;20343;-49
2023/10/07 11:03:20;;;;;;;8.95;4.45;;;;;;;23.00;32.33;98196.22;10406417;28;20056;-49
2023/10/07 11:08:24;;;;;;;5.97;4.00;;;;;;;23.31;31.16;98228.41;10406142;28;20108;-48
2023/10/07 11:13:23;;;;;;;7.47;4.10;;;;;;;23.28;31.14;98212.66;10446525;28;20068;-50
2023/10/07 11:18:24;;;;;;;6.95;4.00;;;;;;;23.35;30.16;98206.13;10447307;28;20047;-50
2023/10/07 11:23:26;;;;;;;6.82;3.42;;;;;;;23.50;28.85;98192.25;10434193;28;20366;-49
2023/10/07 11:28:32;;;;;;;7.15;3.92;;;;;;;23.70;28.79;98190.44;10406092;28;20148;-51
2023/10/07 11:33:31;;;;;;;7.07;4.32;;;;;;;23.79;29.16;98160.84;10446689;28;20487;-49
2023/10/07 11:38:32;;;;;;;8.10;3.88;;;;;;;23.68;28.77;98149.91;10446401;28;20513;-52
2023/10/07 11:43:43;;;;;;;6.28;3.53;;;;;;;23.98;24.61;98158.16;10447562;28;20075;-49
2023/10/07 11:48:45;;;;;;;7.38;2.92;;;;;;;24.04;23.88;98123.41;10443424;28;20134;-50
2023/10/07 11:53:45;;;;;;;5.30;2.90;;;;;;;24.47;24.00;98151.31;10405763;28;20060;-49
2023/10/07 11:58:46;;;;;;;5.82;3.50;;;;;;;24.60;23.02;98153.31;10405336;28;20059;-49
2023/10/07 12:03:45;;;;;;;4.68;3.30;;;;;;;24.73;23.47;98140.25;10404546;28;20068;-52
2023/10/07 12:08:45;;;;;;;6.43;3.40;;;;;;;24.87;23.31;98132.47;10403757;28;20127;-51
2023/10/07 12:13:46;;;;;;;5.65;3.20;;;;;;;24.98;23.35;98139.88;10405220;28;20062;-52
2023/10/07 12:18:48;;;;;;;5.40;2.97;;;;;;;25.13;23.59;98130.22;10452799;28;20063;-49
2023/10/07 12:23:47;;;;;;;7.05;3.33;;;;;;;25.25;23.01;98127.75;10454878;28;20074;-50
2023/10/07 12:28:48;;;;;;;6.32;3.08;;;;;;;25.32;22.82;98122.97;10454076;28;20063;-48
2023/10/07 12:33:50;;;;;;;6.60;3.17;;;;;;;25.16;22.41;98122.94;10454726;28;20079;-51
2023/10/07 12:38:49;;;;;;;5.22;3.63;;;;;;;25.07;21.66;98112.81;10453522;28;20250;-51
2023/10/07 12:43:48;;;;;;;6.68;3.05;;;;;;;24.98;21.75;98111.50;10453047;28;20112;-49
2023/10/07 12:48:47;;;;;;;6.60;3.05;;;;;;;25.17;21.55;98103.41;10412261;28;20031;-50
2023/10/07 12:53:46;;;;;;;6.60;2.92;;;;;;;25.28;21.45;98093.03;10412070;28;20172;-51
2023/10/07 12:58:46;;;;;;;5.95;3.45;;;;;;;25.16;21.55;98075.13;10450834;28;20070;-52
2023/10/07 13:03:45;;;;;;;10.07;3.83;;;;;;;25.30;21.27;98085.84;10451268;28;20574;-48
2023/10/07 13:08:44;;;;;;;6.45;3.47;;;;;;;25.40;21.00;98080.03;10452431;28;20107;-51
2023/10/07 13:13:46;;;;;;;7.10;3.40;;;;;;;25.42;22.21;98057.75;10452330;28;20027;-51
2023/10/07 13:18:45;;;;;;;7.65;4.13;;;;;;;25.56;22.32;98061.47;10451768;28;20074;-50
2023/10/07 13:23:45;;;;;;;6.57;3.33;;;;;;;25.73;23.04;98067.50;10453641;28;20059;-49
2023/10/07 13:28:48;;;;;;;7.90;3.75;;;;;;;25.59;22.47;98072.75;10454406;28;20052;-50
2023/10/07 13:33:47;;;;;;;6.75;3.53;;;;;;;25.71;22.51;98068.53;10455287;28;20098;-50
2023/10/07 13:38:46;;;;;;;5.95;3.60;;;;;;;25.75;22.21;98059.44;10454548;28;20055;-48
2023/10/07 13:43:45;;;;;;;8.98;3.42;;;;;;;25.69;22.80;98057.13;10454633;28;20534;-51
2023/10/07 13:48:44;;;;;;;6.80;3.35;;;;;;;25.65;22.82;98051.16;10413092;28;20494;-49
2023/10/07 13:54:22;;;;;;;8.98;3.53;;;;;;;25.63;22.85;98054.84;10412830;28;20071;-52
2023/10/07 13:59:11;;;;;;;8.00;3.35;;;;;;;25.14;24.89;98061.09;10453451;28;20068;-48
2023/10/07 14:04:15;;;;;;;5.88;3.22;;;;;;;24.96;25.13;98062.94;10454038;28;20039;-50
2023/10/07 14:09:23;;;;;;;7.20;3.63;;;;;;;24.85;24.09;98050.25;10453456;28;20067;-51
2023/10/07 14:14:23;;;;;;;;;;;;;;;24.82;24.98;98055.69;10453915;28;20070;-49
2023/10/07 14:19:22;;;;;;;;;;;;;;;24.74;25.17;98052.63;10411959;28;20406;-50
2023/10/07 14:24:22;;;;;;;6.57;3.20;;;;;;;24.56;24.98;98053.59;10410219;28;19962;-52
2023/10/07 14:29:22;;;;;;;7.55;3.53;;;;;;;24.08;24.71;97984.47;10407300;28;20064;-50
2023/10/07 14:34:21;;;;;;;7.90;3.50;;;;;;;24.59;24.92;98053.41;10448581;28;20625;-51
2023/10/07 14:39:22;;;;;;;5.55;3.03;;;;;;;24.56;24.96;98035.88;10448358;28;20556;-51
2023/10/07 14:44:22;;;;;;;7.90;3.83;;;;;;;24.35;27.32;98044.97;10444778;28;20060;-48
2023/10/07 14:49:21;;;;;;;7.75;4.43;;;;;;;24.17;27.01;98044.09;10406510;28;20060;-50
2023/10/07 14:54:20;;;;;;;9.57;4.30;;;;;;;24.05;27.54;98049.09;10407760;28;20104;-50
2023/10/07 14:59:19;;;;;;;9.93;4.70;;;;;;;23.90;28.03;98047.22;10404918;28;20524;-50
2023/10/07 15:04:18;;;;;;;11.35;5.22;;;;;;;23.82;28.44;98057.38;10406705;28;20060;-49
2023/10/07 15:09:21;;;;;;;8.77;4.43;;;;;;;23.78;28.55;98056.66;10407417;28;20028;-50
2023/10/07 15:14:20;;;;;;;7.60;3.92;;;;;;;23.58;29.49;98059.41;10407761;28;20467;-50
2023/10/07 15:19:19;;;;;;;9.18;3.85;;;;;;;23.23;30.40;98048.69;10405904;28;20479;-48
2023/10/07 15:24:19;;;;;;;10.68;4.25;;;;;;;23.25;30.49;98065.38;10406849;28;20131;-49
2023/10/07 15:29:19;;;;;;;8.02;4.13;;;;;;;23.23;31.23;98061.94;10446516;28;20319;-50
2023/10/07 15:34:19;;;;;;;13.18;4.78;;;;;;;22.99;31.85;98056.84;10447460;28;20489;-51
2023/10/07 15:39:18;;;;;;;15.13;5.97;;;;;;;22.82;32.70;98069.16;10447652;28;20051;-48
2023/10/07 15:44:19;;;;;;;18.08;7.45;;;;;;;22.42;32.91;98063.00;10444006;28;20163;-50
2023/10/07 15:49:18;;;;;;;14.65;7.68;;;;;;;22.18;32.64;98089.56;10405032;28;20096;-51
2023/10/07 15:54:17;;;;;;;12.38;5.57;;;;;;;21.86;33.19;98091.72;10413108;28;20060;-51
2023/10/07 15:59:16;;;;;;;11.70;5.25;;;;;;;21.48;32.80;98093.28;10413741;28;20016;-51
2023/10/07 16:04:15;;;;;;;9.93;5.40;;;;;;;21.17;32.94;98088.31;10413663;28;20354;-48
2023/10/07 16:09:14;;;;;;;10.05;5.40;;;;;;;20.82;33.66;98094.00;10413828;28;20128;-52
2023/10/07 16:14:14;;;;;;;13.32;6.20;;;;;;;20.51;34.75;98102.16;10413355;28;20056;-50
2023/10/07 16:19:13;;;;;;;9.85;6.13;;;;;;;20.18;36.16;98112.94;10412938;28;20071;-47
2023/10/07 16:24:13;;;;;;;20.27;7.80;;;;;;;19.89;37.53;98110.44;10454929;28;20075;-49
2023/10/07 16:29:12;;;;;;;17.10;7.35;;;;;;;19.57;38.13;98112.31;10452391;28;20071;-51
2023/10/07 16:34:11;;;;;;;14.55;7.30;;;;;;;19.27;38.37;98109.69;10452188;28;20130;-48
2023/10/07 16:39:11;;;;;;;13.43;6.63;;;;;;;18.99;39.40;98123.69;10412611;28;20501;-48
2023/10/07 16:44:10;;;;;;;17.08;7.57;;;;;;;18.64;39.74;98114.09;10414065;28;20601;-49
2023/10/07 16:49:12;;;;;;;15.68;7.20;;;;;;;18.43;40.37;98128.69;10453547;28;20139;-50
2023/10/07 16:54:10;;;;;;;9.75;5.82;;;;;;;18.17;40.61;98119.75;10453403;28;20056;-48
2023/10/07 16:59:09;;;;;;;11.00;5.90;;;;;;;17.98;40.53;98118.47;10453153;28;20143;-48
2023/10/07 17:04:08;;;;;;;14.40;5.40;;;;;;;17.71;41.43;98118.22;10443250;28;20103;-48
2023/10/07 17:09:09;;;;;;;13.60;6.53;;;;;;;17.40;42.04;98097.06;10411857;28;20031;-48
2023/10/07 17:14:08;;;;;;;13.43;7.03;;;;;;;17.43;42.76;98127.66;10449935;28;20056;-48
2023/10/07 17:19:07;;;;;;;19.35;7.28;;;;;;;17.03;43.45;98110.16;10452539;28;20032;-48
2023/10/07 17:24:06;;;;;;;;;;;;;;;17.08;43.84;98140.63;10451938;28;20107;-49
2023/10/07 17:29:05;;;;;;;17.27;8.33;;;;;;;16.96;44.56;98143.50;10451825;28;19916;-50
2023/10/07 17:34:04;;;;;;;13.48;7.63;;;;;;;16.81;44.86;98134.16;10452074;28;20064;-50
2023/10/07 17:39:04;;;;;;;14.27;9.05;;;;;;;16.69;45.69;98150.13;10452125;28;20074;-51
2023/10/07 17:44:03;;;;;;;17.35;9.90;;;;;;;16.57;46.33;98151.22;10448358;28;20067;-49
2023/10/07 17:49:02;;;;;;;22.48;12.48;;;;;;;16.49;46.50;98153.97;10409163;28;20116;-48
2023/10/07 17:54:02;;;;;;;22.15;9.73;;;;;;;16.33;47.51;98165.63;10448964;28;20067;-53
2023/10/07 17:59:01;;;;;;;19.63;9.95;;;;;;;16.17;47.56;98166.78;10451091;28;20056;-51
2023/10/07 18:04:00;;;;;;;;;;;;;;;16.07;47.87;98179.16;10449383;28;20155;-48
2023/10/07 18:08:59;;;;;;;21.95;8.68;;;;;;;15.85;47.85;98170.78;10450785;28;20024;-51
2023/10/07 18:13:57;;;;;;;;;;;;;;;15.77;48.17;98170.88;10450489;28;20402;-49
2023/10/07 18:18:56;;;;;;;24.77;8.25;;;;;;;15.62;48.93;98168.47;10449718;28;19969;-51
2023/10/07 18:23:55;;;;;;;;;;;;;;;15.51;49.27;98168.63;10451717;28;20030;-49
2023/10/07 18:28:54;;;;;;;21.70;8.57;;;;;;;15.45;49.76;98177.41;10453072;28;19916;-49
2023/10/07 18:33:54;;;;;;;;;;;;;;;15.21;50.49;98177.75;10452816;28;20138;-49
2023/10/07 18:38:53;;;;;;;23.10;10.02;;;;;;;15.04;50.67;98189.28;10433065;28;19994;-51
2023/10/07 18:43:51;;;;;;;;;;;;;;;14.84;51.17;98188.63;10413034;28;20435;-50
2023/10/07 18:48:50;;;;;;;25.45;13.20;;;;;;;14.90;51.05;98190.34;10451932;28;19953;-51
2023/10/07 18:53:49;;;;;;;;;;;;;;;14.80;50.97;98186.94;10453004;28;20024;-50
2023/10/07 18:58:51;;;;;;;26.50;12.00;;;;;;;14.43;51.95;98163.81;10452342;28;19950;-51
2023/10/07 19:03:50;;;;;;;20.13;7.28;;;;;;;14.05;52.24;98179.78;10451573;28;20070;-51
2023/10/07 19:08:49;;;;;;;;;;;;;;;14.07;52.43;98205.00;10451811;28;20024;-51
2023/10/07 19:13:50;;;;;;;17.85;6.68;;;;;;;14.02;52.59;98195.47;10452018;28;19969;-50
2023/10/07 19:18:49;;;;;;;13.73;7.05;;;;;;;14.05;52.36;98201.53;10451287;28;20486;-50
2023/10/07 19:23:47;;;;;;;;;;;;;;;13.97;52.59;98204.19;10450753;28;20539;-48
2023/10/07 19:28:47;;;;;;;17.90;7.85;;;;;;;13.95;52.86;98200.75;10447419;28;20462;-51
2023/10/07 19:33:46;;;;;;;19.75;10.18;;;;;;;13.85;53.29;98198.22;10405006;28;20080;-48
2023/10/07 19:38:45;;;;;;;21.83;9.50;;;;;;;13.78;53.99;98208.69;10407219;28;20060;-52
2023/10/07 19:43:44;;;;;;;18.85;10.68;;;;;;;13.69;54.71;98203.53;10445245;28;20040;-52
2023/10/07 19:48:43;;;;;;;20.27;9.43;;;;;;;13.61;55.17;98194.00;10406280;28;20028;-48
2023/10/07 19:53:43;;;;;;;17.15;9.27;;;;;;;13.47;55.81;98171.47;10413521;28;20131;-49
2023/10/07 19:58:43;;;;;;;18.60;10.48;;;;;;;13.43;55.79;98189.75;10405615;28;20064;-50
2023/10/07 20:03:42;;;;;;;19.48;9.98;;;;;;;13.10;56.13;98127.38;10404189;28;20596;-52
2023/10/07 20:08:41;;;;;;;20.90;10.60;;;;;;;13.26;57.38;98179.44;10405320;28;20048;-51
2023/10/07 20:13:40;;;;;;;23.95;10.10;;;;;;;13.04;57.89;98156.03;10405709;28;20071;-51
2023/10/07 20:18:40;;;;;;;16.52;9.27;;;;;;;12.98;58.24;98174.31;10405078;28;20039;-52
2023/10/07 20:23:39;;;;;;;22.98;10.13;;;;;;;12.95;57.90;98179.53;10405643;28;20075;-49
2023/10/07 20:28:38;;;;;;;24.45;12.02;;;;;;;12.94;57.38;98172.59;10404963;28;20025;-51
2023/10/07 20:33:37;;;;;;;25.58;11.38;;;;;;;12.91;56.98;98172.63;10405007;28;20044;-52
2023/10/07 20:38:36;;;;;;;18.38;9.27;;;;;;;12.79;57.41;98175.25;10409409;28;20562;-49
2023/10/07 20:43:35;;;;;;;28.15;10.70;;;;;;;12.69;57.67;98169.19;10411866;28;20384;-49
2023/10/07 20:48:34;;;;;;;16.80;8.57;;;;;;;12.56;57.65;98151.91;10451824;28;20032;-49
2023/10/07 20:53:34;;;;;;;17.60;9.43;;;;;;;12.51;58.31;98160.59;10451710;28;20128;-51
2023/10/07 20:58:34;;;;;;;15.77;9.30;;;;;;;12.49;58.75;98158.84;10453053;28;20058;-50
2023/10/07 21:03:33;;;;;;;15.30;8.85;;;;;;;12.38;59.66;98158.88;10453456;28;20106;-49
2023/10/07 21:08:32;;;;;;;19.83;9.70;;;;;;;12.27;59.96;98153.69;10451721;28;20023;-51
2023/10/07 21:13:31;;;;;;;17.38;9.55;;;;;;;12.06;61.19;98145.84;10453183;28;20060;-49
2023/10/07 21:18:30;;;;;;;20.17;9.57;;;;;;;11.97;61.29;98145.84;10452182;28;20027;-51
2023/10/07 21:23:29;;;;;;;21.80;10.00;;;;;;;11.84;61.57;98134.59;10452755;28;20074;-48
2023/10/07 21:28:29;;;;;;;19.35;10.23;;;;;;;11.72;62.09;98135.47;10455474;28;20028;-49
2023/10/07 21:33:28;;;;;;;30.40;11.23;;;;;;;11.58;62.71;98132.00;10455765;28;20071;-50
2023/10/07 21:38:27;;;;;;;19.48;10.02;;;;;;;11.49;63.01;98121.59;10454541;28;20028;-49
2023/10/07 21:43:26;;;;;;;17.20;9.98;;;;;;;11.39;63.93;98129.38;10455492;28;20034;-49
2023/10/07 21:48:28;;;;;;;20.15;9.77;;;;;;;11.35;63.43;98121.56;10414512;28;20048;-50
2023/10/07 21:53:27;;;;;;;26.15;11.93;;;;;;;11.27;64.59;98108.56;10412898;28;20490;-47
2023/10/07 21:58:26;;;;;;;18.70;10.77;;;;;;;11.29;64.44;98114.63;10411216;28;20555;-47
2023/10/07 22:03:26;;;;;;;25.13;10.48;;;;;;;11.14;66.07;98107.66;10412583;28;20462;-51
2023/10/07 22:08:25;;;;;;;21.92;10.98;;;;;;;10.96;65.52;98079.94;10411774;28;20056;-50
2023/10/07 22:13:26;;;;;;;19.50;11.50;;;;;;;11.07;66.16;98095.53;10411319;28;20094;-50
2023/10/07 22:18:26;;;;;;;20.80;10.32;;;;;;;11.00;66.44;98096.38;10411701;28;20514;-50
2023/10/07 22:23:26;;;;;;;16.88;9.63;;;;;;;10.86;66.84;98103.22;10411294;28;21200;-48
2023/10/07 22:28:26;;;;;;;14.57;8.75;;;;;;;10.69;66.69;98097.97;10406586;28;20210;-50
2023/10/07 22:33:25;;;;;;;18.05;9.70;;;;;;;10.60;66.96;98096.19;10408332;28;20076;-48
2023/10/07 22:38:26;;;;;;;18.83;8.57;;;;;;;10.49;66.48;98092.69;10407446;28;20052;-51
2023/10/07 22:43:33;;;;;;;16.60;9.18;;;;;;;10.44;65.66;98090.06;10408153;28;20680;-51
2023/10/07 22:48:34;;;;;;;20.42;9.75;;;;;;;10.31;66.49;98085.69;10409038;28;20120;-51
2023/10/07 22:53:41;;;;;;;18.60;9.25;;;;;;;10.19;67.11;98083.88;10408447;28;20667;-50
2023/10/07 22:58:43;;;;;;;15.85;9.20;;;;;;;10.02;68.22;98086.38;10445954;28;20055;-49
2023/10/07 23:03:48;;;;;;;19.83;9.02;;;;;;;9.87;67.81;98069.00;10448207;28;20110;-51
2023/10/07 23:08:58;;;;;;;15.35;8.40;;;;;;;9.98;67.70;98082.03;10447904;28;20068;-49
2023/10/07 23:14:06;;;;;;;18.08;9.45;;;;;;;9.90;67.14;98083.69;10407058;28;20595;-48
2023/10/07 23:19:16;;;;;;;19.00;8.40;;;;;;;9.80;67.91;98085.34;10405606;28;20071;-50
2023/10/07 23:29:43;;;;;;;16.27;9.38;;;;;;;9.63;68.18;98066.22;10450403;28;20051;-50
2023/10/07 23:34:43;;;;;;;17.67;9.00;;;;;;;9.64;69.13;98081.78;10451125;28;20101;-50
2023/10/07 23:39:48;;;;;;;;;;;;;;;9.64;68.95;98081.78;10451357;28;20059;-49
2023/10/07 23:44:47;;;;;;;15.02;8.95;;;;;;;9.62;68.98;98070.53;10441930;28;19955;-49
2023/10/07 23:49:46;;;;;;;18.02;8.73;;;;;;;9.57;69.60;98064.44;10408732;28;20511;-51
2023/10/07 23:54:48;;;;;;;14.52;9.20;;;;;;;9.54;70.13;98056.66;10409580;28;20063;-48
2023/10/07 23:59:49;;;;;;;19.73;10.52;;;;;;;9.49;69.96;98056.63;10448367;28;20051;-49
